Dahomey, Mississippi
Current Conditions -  °F | °C
As of 11:53 AM on Saturday 25 Oct 2014 (Local Time) from KGLH Reporting Station
Clear Clear  
Wind Chill: 76°   Ceiling: Unl
Heat Index: 76°   Visibility: 9mi
Dew Point: 58°   Wind: 10mph
Humidity: 54%   Direction: 260°W
Pressure: 30.13"   Gusts: NA
Location:  33.6504°N, 91.0785°W
Report Text: KGLH 251653Z AUTO 26009KT 9SM CLR 24/14 A3013 RMK AO2 SLP209 T02440144
Loading
Personal Weather Stations






























Interactive Weather Map
Tropical Storm Tracking
New forecast layout! Learn more

10-Day Weather Forecast

Advertisements
Track Severe Weather on mobile